Laytown, North Carolina
Current Conditions -  °F | °C
As of 11:35 PM on Monday 20 Oct 2014 (Local Time) from KMRN Reporting Station
Overcast Overcast  
Wind Chill: 55°   Ceiling: 10000
Heat Index: 55°   Visibility: 10mi
Dew Point: 53°   Wind: 0mph
Humidity: 91%   Direction: NA
Pressure: 30.04"   Gusts: NA
Location:  35.9726°N, 81.5331°W
Report Text: KMRN 210335Z AUTO 00000KT 10SM OVC100 13/12 A3004 RMK AO2 T01300116
Loading
Personal Weather Stations






























Interactive Weather Map
Tropical Storm Tracking
New forecast layout! Learn more

10-Day Weather Forecast

Advertisements
Track Severe Weather on mobile